sensor_id;sensor_type;location;lat;lon;timestamp;pressure;altitude;pressure_sealevel;temperature;humidity
18795;BME280;29610;49.022;12.114;2023-04-22T00:01:53;97265.84;;;9.22;100.00
18795;BME280;29610;49.022;12.114;2023-04-22T00:04:42;97257.19;;;9.29;100.00
18795;BME280;29610;49.022;12.114;2023-04-22T00:07:33;97263.91;;;9.31;100.00
18795;BME280;29610;49.022;12.114;2023-04-22T00:10:22;97265.84;;;9.14;100.00
18795;BME280;29610;49.022;12.114;2023-04-22T00:13:13;97257.72;;;9.14;100.00
18795;BME280;29610;49.022;12.114;2023-04-22T00:16:06;97258.47;;;9.23;100.00
18795;BME280;29610;49.022;12.114;2023-04-22T00:18:55;97259.88;;;9.37;100.00
18795;BME280;29610;49.022;12.114;2023-04-22T00:21:44;97263.34;;;9.46;100.00
18795;BME280;29610;49.022;12.114;2023-04-22T00:24:32;97266.38;;;9.53;100.00
18795;BME280;29610;49.022;12.114;2023-04-22T00:27:21;97263.50;;;9.50;100.00
18795;BME280;29610;49.022;12.114;2023-04-22T00:30:12;97262.59;;;9.37;100.00
18795;BME280;29610;49.022;12.114;2023-04-22T00:33:02;97258.47;;;9.23;100.00
18795;BME280;29610;49.022;12.114;2023-04-22T00:35:51;97264.44;;;9.08;100.00
18795;BME280;29610;49.022;12.114;2023-04-22T00:38:48;97270.50;;;8.87;100.00
18795;BME280;29610;49.022;12.114;2023-04-22T00:41:38;97268.25;;;8.81;100.00
18795;BME280;29610;49.022;12.114;2023-04-22T00:44:34;97274.34;;;8.86;100.00
18795;BME280;29610;49.022;12.114;2023-04-22T00:47:25;97276.06;;;8.82;100.00
18795;BME280;29610;49.022;12.114;2023-04-22T00:50:15;97273.38;;;8.74;100.00
18795;BME280;29610;49.022;12.114;2023-04-22T00:53:03;97276.09;;;8.65;100.00
18795;BME280;29610;49.022;12.114;2023-04-22T00:55:53;97278.47;;;8.67;100.00
18795;BME280;29610;49.022;12.114;2023-04-22T00:58:42;97285.00;;;8.57;100.00
18795;BME280;29610;49.022;12.114;2023-04-22T01:01:32;97277.19;;;8.39;100.00
18795;BME280;29610;49.022;12.114;2023-04-22T01:04:23;97288.16;;;8.25;100.00
18795;BME280;29610;49.022;12.114;2023-04-22T01:07:12;97293.59;;;8.34;100.00
18795;BME280;29610;49.022;12.114;2023-04-22T01:10:02;97286.88;;;8.23;100.00
18795;BME280;29610;49.022;12.114;2023-04-22T01:12:51;97283.06;;;8.32;100.00
18795;BME280;29610;49.022;12.114;2023-04-22T01:15:40;97287.38;;;8.33;100.00
18795;BME280;29610;49.022;12.114;2023-04-22T01:18:30;97294.22;;;8.31;100.00
18795;BME280;29610;49.022;12.114;2023-04-22T01:21:21;97282.84;;;8.20;100.00
18795;BME280;29610;49.022;12.114;2023-04-22T01:24:12;97287.38;;;8.42;100.00
18795;BME280;29610;49.022;12.114;2023-04-22T01:27:01;97283.69;;;8.38;100.00
18795;BME280;29610;49.022;12.114;2023-04-22T01:29:50;97291.34;;;8.44;100.00
18795;BME280;29610;49.022;12.114;2023-04-22T01:32:40;97294.41;;;8.34;100.00
18795;BME280;29610;49.022;12.114;2023-04-22T01:35:29;97292.28;;;8.31;100.00
18795;BME280;29610;49.022;12.114;2023-04-22T01:38:23;97290.06;;;8.25;100.00
18795;BME280;29610;49.022;12.114;2023-04-22T01:41:14;97294.81;;;8.19;100.00
18795;BME280;29610;49.022;12.114;2023-04-22T01:44:04;97287.16;;;8.21;100.00
18795;BME280;29610;49.022;12.114;2023-04-22T01:46:54;97293.44;;;8.39;100.00
18795;BME280;29610;49.022;12.114;2023-04-22T01:49:43;97299.31;;;8.41;100.00
18795;BME280;29610;49.022;12.114;2023-04-22T01:52:32;97293.59;;;8.42;100.00
18795;BME280;29610;49.022;12.114;2023-04-22T01:55:21;97295.34;;;8.38;100.00
18795;BME280;29610;49.022;12.114;2023-04-22T01:58:11;97296.47;;;8.37;100.00
18795;BME280;29610;49.022;12.114;2023-04-22T02:01:00;97299.81;;;8.34;100.00
18795;BME280;29610;49.022;12.114;2023-04-22T02:03:49;97296.75;;;8.27;100.00
18795;BME280;29610;49.022;12.114;2023-04-22T02:06:38;97296.38;;;8.12;100.00
18795;BME280;29610;49.022;12.114;2023-04-22T02:09:27;97293.97;;;8.02;100.00
18795;BME280;29610;49.022;12.114;2023-04-22T02:12:16;97307.84;;;8.09;100.00
18795;BME280;29610;49.022;12.114;2023-04-22T02:15:08;97303.22;;;8.18;100.00
18795;BME280;29610;49.022;12.114;2023-04-22T02:17:58;97297.72;;;8.23;100.00
18795;BME280;29610;49.022;12.114;2023-04-22T02:20:48;97291.16;;;8.24;100.00
18795;BME280;29610;49.022;12.114;2023-04-22T02:23:38;97288.94;;;8.26;100.00
18795;BME280;29610;49.022;12.114;2023-04-22T02:26:27;97286.56;;;8.24;100.00
18795;BME280;29610;49.022;12.114;2023-04-22T02:29:17;97286.88;;;8.31;100.00
18795;BME280;29610;49.022;12.114;2023-04-22T02:32:08;97287.38;;;8.33;100.00
18795;BME280;29610;49.022;12.114;2023-04-22T02:34:57;97281.63;;;8.35;100.00
18795;BME280;29610;49.022;12.114;2023-04-22T02:37:46;97283.06;;;8.41;100.00
18795;BME280;29610;49.022;12.114;2023-04-22T02:40:35;97279.56;;;8.32;100.00
18795;BME280;29610;49.022;12.114;2023-04-22T02:43:24;97277.34;;;8.34;100.00
18795;BME280;29610;49.022;12.114;2023-04-22T02:46:14;97286.09;;;8.31;100.00
18795;BME280;29610;49.022;12.114;2023-04-22T02:49:05;97285.59;;;8.29;100.00
18795;BME280;29610;49.022;12.114;2023-04-22T02:51:54;97281.31;;;8.28;100.00
18795;BME280;29610;49.022;12.114;2023-04-22T02:54:43;97282.69;;;8.08;100.00
18795;BME280;29610;49.022;12.114;2023-04-22T02:57:32;97284.56;;;8.08;100.00
18795;BME280;29610;49.022;12.114;2023-04-22T03:00:21;97284.56;;;8.08;100.00
18795;BME280;29610;49.022;12.114;2023-04-22T03:03:10;97288.50;;;7.85;100.00
18795;BME280;29610;49.022;12.114;2023-04-22T03:06:01;97285.41;;;7.69;100.00
18795;BME280;29610;49.022;12.114;2023-04-22T03:08:51;97291.94;;;7.68;100.00
18795;BME280;29610;49.022;12.114;2023-04-22T03:11:39;97284.84;;;7.50;100.00
18795;BME280;29610;49.022;12.114;2023-04-22T03:14:29;97283.16;;;7.32;100.00
18795;BME280;29610;49.022;12.114;2023-04-22T03:17:18;97288.66;;;7.18;100.00
18795;BME280;29610;49.022;12.114;2023-04-22T03:20:09;97287.41;;;7.24;100.00
18795;BME280;29610;49.022;12.114;2023-04-22T03:23:00;97286.50;;;7.29;100.00
18795;BME280;29610;49.022;12.114;2023-04-22T03:25:50;97283.63;;;7.25;100.00
18795;BME280;29610;49.022;12.114;2023-04-22T03:28:40;97289.97;;;7.29;100.00
18795;BME280;29610;49.022;12.114;2023-04-22T03:31:29;97281.25;;;7.32;100.00
18795;BME280;29610;49.022;12.114;2023-04-22T03:34:18;97281.56;;;7.31;100.00
18795;BME280;29610;49.022;12.114;2023-04-22T03:37:08;97282.75;;;7.16;100.00
18795;BME280;29610;49.022;12.114;2023-04-22T03:39:58;97292.63;;;6.99;100.00
18795;BME280;29610;49.022;12.114;2023-04-22T03:42:49;97296.06;;;6.91;100.00
18795;BME280;29610;49.022;12.114;2023-04-22T03:45:40;97288.13;;;6.86;100.00
18795;BME280;29610;49.022;12.114;2023-04-22T03:48:37;97298.03;;;6.77;100.00
18795;BME280;29610;49.022;12.114;2023-04-22T03:51:31;97297.38;;;6.71;100.00
18795;BME280;29610;49.022;12.114;2023-04-22T03:54:26;97295.34;;;6.77;100.00
18795;BME280;29610;49.022;12.114;2023-04-22T03:57:17;97296.53;;;6.84;100.00
18795;BME280;29610;49.022;12.114;2023-04-22T04:00:07;97292.59;;;6.90;100.00
18795;BME280;29610;49.022;12.114;2023-04-22T04:03:00;97294.91;;;6.83;100.00
18795;BME280;29610;49.022;12.114;2023-04-22T04:05:50;97293.56;;;6.94;100.00
18795;BME280;29610;49.022;12.114;2023-04-22T04:08:40;97299.03;;;7.03;100.00
18795;BME280;29610;49.022;12.114;2023-04-22T04:11:30;97294.75;;;7.02;100.00
18795;BME280;29610;49.022;12.114;2023-04-22T04:14:21;97291.56;;;7.00;100.00
18795;BME280;29610;49.022;12.114;2023-04-22T04:17:11;97290.97;;;6.89;100.00
18795;BME280;29610;49.022;12.114;2023-04-22T04:20:01;97293.22;;;6.87;100.00
18795;BME280;29610;49.022;12.114;2023-04-22T04:22:51;97298.66;;;6.96;100.00
18795;BME280;29610;49.022;12.114;2023-04-22T04:25:40;97293.31;;;7.04;100.00
18795;BME280;29610;49.022;12.114;2023-04-22T04:28:32;97296.34;;;7.03;100.00
18795;BME280;29610;49.022;12.114;2023-04-22T04:31:23;97296.44;;;7.20;100.00
18795;BME280;29610;49.022;12.114;2023-04-22T04:34:14;97290.28;;;7.28;100.00
18795;BME280;29610;49.022;12.114;2023-04-22T04:37:04;97291.16;;;7.37;100.00
18795;BME280;29610;49.022;12.114;2023-04-22T04:40:11;97300.44;;;7.22;100.00
18795;BME280;29610;49.022;12.114;2023-04-22T04:43:05;97288.69;;;7.27;100.00
18795;BME280;29610;49.022;12.114;2023-04-22T04:46:03;97295.97;;;7.48;100.00
18795;BME280;29610;49.022;12.114;2023-04-22T04:48:57;97297.66;;;7.36;100.00
18795;BME280;29610;49.022;12.114;2023-04-22T04:51:50;97299.25;;;7.37;100.00
18795;BME280;29610;49.022;12.114;2023-04-22T04:54:39;97305.44;;;7.37;100.00
18795;BME280;29610;49.022;12.114;2023-04-22T04:57:28;97298.50;;;7.45;100.00
18795;BME280;29610;49.022;12.114;2023-04-22T05:00:18;97305.44;;;7.37;100.00
18795;BME280;29610;49.022;12.114;2023-04-22T05:03:08;97301.97;;;7.37;100.00
18795;BME280;29610;49.022;12.114;2023-04-22T05:05:58;97302.88;;;7.32;100.00
18795;BME280;29610;49.022;12.114;2023-04-22T05:08:48;97306.44;;;7.41;100.00
18795;BME280;29610;49.022;12.114;2023-04-22T05:11:38;97309.78;;;7.47;100.00
18795;BME280;29610;49.022;12.114;2023-04-22T05:14:35;97303.94;;;7.54;100.00
18795;BME280;29610;49.022;12.114;2023-04-22T05:17:24;97301.78;;;7.64;100.00
18795;BME280;29610;49.022;12.114;2023-04-22T05:20:14;97307.38;;;7.76;100.00
18795;BME280;29610;49.022;12.114;2023-04-22T05:23:05;97300.53;;;7.79;100.00
18795;BME280;29610;49.022;12.114;2023-04-22T05:25:55;97307.31;;;7.98;100.00
18795;BME280;29610;49.022;12.114;2023-04-22T05:28:44;97298.28;;;8.11;100.00
18795;BME280;29610;49.022;12.114;2023-04-22T05:31:36;97299.28;;;8.24;100.00
18795;BME280;29610;49.022;12.114;2023-04-22T05:34:25;97301.78;;;8.20;100.00
18795;BME280;29610;49.022;12.114;2023-04-22T05:37:14;97299.19;;;8.63;100.00
18795;BME280;29610;49.022;12.114;2023-04-22T05:40:07;97300.47;;;8.82;100.00
18795;BME280;29610;49.022;12.114;2023-04-22T05:42:57;97302.88;;;9.01;100.00
18795;BME280;29610;49.022;12.114;2023-04-22T05:45:46;97303.81;;;9.22;100.00
18795;BME280;29610;49.022;12.114;2023-04-22T05:48:36;97298.50;;;9.34;100.00
18795;BME280;29610;49.022;12.114;2023-04-22T05:51:29;97294.31;;;9.45;100.00
18795;BME280;29610;49.022;12.114;2023-04-22T05:54:19;97297.03;;;9.54;100.00
18795;BME280;29610;49.022;12.114;2023-04-22T05:57:10;97295.31;;;9.78;100.00
18795;BME280;29610;49.022;12.114;2023-04-22T05:59:59;97295.72;;;9.97;100.00
18795;BME280;29610;49.022;12.114;2023-04-22T06:02:48;97292.00;;;10.10;100.00
18795;BME280;29610;49.022;12.114;2023-04-22T06:05:37;97297.81;;;10.29;100.00
18795;BME280;29610;49.022;12.114;2023-04-22T06:08:28;97305.31;;;10.32;100.00
18795;BME280;29610;49.022;12.114;2023-04-22T06:11:18;97303.47;;;10.45;100.00
18795;BME280;29610;49.022;12.114;2023-04-22T06:14:08;97302.03;;;10.68;100.00
18795;BME280;29610;49.022;12.114;2023-04-22T06:16:57;97301.44;;;10.63;100.00
18795;BME280;29610;49.022;12.114;2023-04-22T06:19:46;97299.25;;;10.97;100.00
18795;BME280;29610;49.022;12.114;2023-04-22T06:22:36;97303.66;;;11.22;100.00
18795;BME280;29610;49.022;12.114;2023-04-22T06:25:25;97307.72;;;11.49;100.00
18795;BME280;29610;49.022;12.114;2023-04-22T06:28:14;97311.03;;;11.99;100.00
18795;BME280;29610;49.022;12.114;2023-04-22T06:31:07;97309.06;;;12.48;100.00
18795;BME280;29610;49.022;12.114;2023-04-22T06:34:01;97316.97;;;12.89;100.00
18795;BME280;29610;49.022;12.114;2023-04-22T06:36:56;97311.63;;;13.32;100.00
18795;BME280;29610;49.022;12.114;2023-04-22T06:39:45;97313.72;;;13.66;100.00
18795;BME280;29610;49.022;12.114;2023-04-22T06:43:07;97320.53;;;14.19;100.00
18795;BME280;29610;49.022;12.114;2023-04-22T06:46:29;97318.59;;;14.50;100.00
18795;BME280;29610;49.022;12.114;2023-04-22T06:49:57;97323.28;;;14.85;100.00
18795;BME280;29610;49.022;12.114;2023-04-22T06:52:55;97319.31;;;15.17;100.00
18795;BME280;29610;49.022;12.114;2023-04-22T06:55:44;97321.09;;;15.09;100.00
18795;BME280;29610;49.022;12.114;2023-04-22T06:58:33;97317.53;;;15.43;100.00
18795;BME280;29610;49.022;12.114;2023-04-22T07:01:22;97322.22;;;15.43;100.00
18795;BME280;29610;49.022;12.114;2023-04-22T07:04:12;97319.22;;;15.70;100.00
18795;BME280;29610;49.022;12.114;2023-04-22T07:07:01;97322.00;;;15.93;100.00
18795;BME280;29610;49.022;12.114;2023-04-22T07:09:51;97315.78;;;16.19;100.00
18795;BME280;29610;49.022;12.114;2023-04-22T07:12:40;97311.75;;;16.35;100.00
18795;BME280;29610;49.022;12.114;2023-04-22T07:15:29;97313.50;;;16.47;100.00
18795;BME280;29610;49.022;12.114;2023-04-22T07:18:18;97307.59;;;16.67;100.00
18795;BME280;29610;49.022;12.114;2023-04-22T07:21:09;97307.94;;;16.92;100.00
18795;BME280;29610;49.022;12.114;2023-04-22T07:23:58;97305.44;;;17.42;100.00
18795;BME280;29610;49.022;12.114;2023-04-22T07:26:47;97304.38;;;17.84;100.00
18795;BME280;29610;49.022;12.114;2023-04-22T07:29:36;97310.59;;;18.21;100.00
18795;BME280;29610;49.022;12.114;2023-04-22T07:32:26;97302.66;;;18.56;100.00
18795;BME280;29610;49.022;12.114;2023-04-22T07:35:15;97305.72;;;18.44;100.00
18795;BME280;29610;49.022;12.114;2023-04-22T07:38:06;97298.88;;;18.27;100.00
18795;BME280;29610;49.022;12.114;2023-04-22T07:40:58;97292.72;;;18.95;100.00
18795;BME280;29610;49.022;12.114;2023-04-22T07:43:48;97292.94;;;19.34;100.00
18795;BME280;29610;49.022;12.114;2023-04-22T07:46:38;97294.94;;;19.51;100.00
18795;BME280;29610;49.022;12.114;2023-04-22T07:49:28;97292.38;;;20.35;100.00
18795;BME280;29610;49.022;12.114;2023-04-22T07:52:17;97281.69;;;20.72;100.00
18795;BME280;29610;49.022;12.114;2023-04-22T07:55:09;97283.28;;;20.80;100.00
18795;BME280;29610;49.022;12.114;2023-04-22T07:58:01;97276.94;;;21.01;100.00
18795;BME280;29610;49.022;12.114;2023-04-22T08:00:53;97271.63;;;21.41;100.00
18795;BME280;29610;49.022;12.114;2023-04-22T08:03:45;97275.84;;;21.70;100.00
18795;BME280;29610;49.022;12.114;2023-04-22T08:06:35;97265.56;;;21.74;100.00
18795;BME280;29610;49.022;12.114;2023-04-22T08:09:24;97273.00;;;21.92;100.00
18795;BME280;29610;49.022;12.114;2023-04-22T08:12:14;97269.09;;;21.82;100.00
18795;BME280;29610;49.022;12.114;2023-04-22T08:15:04;97270.72;;;21.69;100.00
18795;BME280;29610;49.022;12.114;2023-04-22T08:17:53;97272.66;;;21.72;98.93
18795;BME280;29610;49.022;12.114;2023-04-22T08:20:43;97268.72;;;21.80;100.00
18795;BME280;29610;49.022;12.114;2023-04-22T08:23:32;97264.22;;;21.28;100.00
18795;BME280;29610;49.022;12.114;2023-04-22T08:26:21;97267.69;;;21.46;100.00
18795;BME280;29610;49.022;12.114;2023-04-22T08:29:12;97267.28;;;21.47;100.00
18795;BME280;29610;49.022;12.114;2023-04-22T08:32:02;97276.75;;;21.43;100.00
18795;BME280;29610;49.022;12.114;2023-04-22T08:34:51;97276.88;;;21.18;100.00
18795;BME280;29610;49.022;12.114;2023-04-22T08:37:47;97278.34;;;21.47;99.96
18795;BME280;29610;49.022;12.114;2023-04-22T08:40:40;97284.88;;;20.28;100.00
18795;BME280;29610;49.022;12.114;2023-04-22T08:43:31;97286.44;;;20.19;100.00
18795;BME280;29610;49.022;12.114;2023-04-22T08:46:22;97287.22;;;20.62;100.00
18795;BME280;29610;49.022;12.114;2023-04-22T08:49:13;97282.91;;;20.40;100.00
18795;BME280;29610;49.022;12.114;2023-04-22T08:52:03;97281.25;;;21.02;100.00
18795;BME280;29610;49.022;12.114;2023-04-22T08:54:52;97278.31;;;21.51;100.00
18795;BME280;29610;49.022;12.114;2023-04-22T08:57:43;97284.56;;;21.76;100.00
18795;BME280;29610;49.022;12.114;2023-04-22T09:00:32;97276.63;;;21.74;99.40
18795;BME280;29610;49.022;12.114;2023-04-22T09:03:24;97279.38;;;21.78;100.00
18795;BME280;29610;49.022;12.114;2023-04-22T09:06:16;97267.00;;;22.00;100.00
18795;BME280;29610;49.022;12.114;2023-04-22T09:09:07;97268.84;;;22.21;98.51
18795;BME280;29610;49.022;12.114;2023-04-22T09:11:59;97267.19;;;22.30;100.00
18795;BME280;29610;49.022;12.114;2023-04-22T09:14:49;97268.06;;;22.64;99.34
18795;BME280;29610;49.022;12.114;2023-04-22T09:17:40;97259.66;;;22.78;94.30
18795;BME280;29610;49.022;12.114;2023-04-22T09:20:31;97263.50;;;22.88;95.68
18795;BME280;29610;49.022;12.114;2023-04-22T09:23:20;97256.44;;;23.51;85.66
18795;BME280;29610;49.022;12.114;2023-04-22T09:26:10;97254.50;;;23.78;84.63
18795;BME280;29610;49.022;12.114;2023-04-22T09:28:59;97253.53;;;23.61;85.82
18795;BME280;29610;49.022;12.114;2023-04-22T09:31:51;97248.66;;;23.99;82.15
18795;BME280;29610;49.022;12.114;2023-04-22T09:34:48;97245.78;;;24.06;79.34
18795;BME280;29610;49.022;12.114;2023-04-22T09:37:41;97250.16;;;23.77;82.86
18795;BME280;29610;49.022;12.114;2023-04-22T09:40:40;97258.81;;;22.81;84.53
18795;BME280;29610;49.022;12.114;2023-04-22T09:43:31;97256.81;;;23.19;91.76
18795;BME280;29610;49.022;12.114;2023-04-22T09:46:22;97261.25;;;22.76;90.81
18795;BME280;29610;49.022;12.114;2023-04-22T09:49:15;97258.94;;;22.67;91.16
18795;BME280;29610;49.022;12.114;2023-04-22T09:52:04;97256.78;;;23.26;94.20
18795;BME280;29610;49.022;12.114;2023-04-22T09:54:56;97243.13;;;23.05;93.99
18795;BME280;29610;49.022;12.114;2023-04-22T09:57:46;97257.59;;;22.42;98.55
18795;BME280;29610;49.022;12.114;2023-04-22T10:00:39;97253.34;;;23.11;90.13
18795;BME280;29610;49.022;12.114;2023-04-22T10:03:29;97254.13;;;22.78;90.50
18795;BME280;29610;49.022;12.114;2023-04-22T10:06:19;97248.25;;;23.06;86.26
18795;BME280;29610;49.022;12.114;2023-04-22T10:09:08;97245.34;;;23.17;89.91
18795;BME280;29610;49.022;12.114;2023-04-22T10:12:00;97245.34;;;23.17;91.27
18795;BME280;29610;49.022;12.114;2023-04-22T10:14:50;97231.75;;;23.30;89.23
18795;BME280;29610;49.022;12.114;2023-04-22T10:17:41;97218.50;;;24.24;84.29
18795;BME280;29610;49.022;12.114;2023-04-22T10:20:32;97236.63;;;24.09;92.20
18795;BME280;29610;49.022;12.114;2023-04-22T10:23:24;97222.59;;;24.62;79.10
18795;BME280;29610;49.022;12.114;2023-04-22T10:26:39;97227.50;;;24.08;79.86
18795;BME280;29610;49.022;12.114;2023-04-22T10:29:37;97228.06;;;23.40;86.22
18795;BME280;29610;49.022;12.114;2023-04-22T10:32:27;97220.84;;;24.02;81.29
18795;BME280;29610;49.022;12.114;2023-04-22T10:35:26;97214.09;;;24.03;85.92
18795;BME280;29610;49.022;12.114;2023-04-22T10:38:17;97222.09;;;23.41;89.07
18795;BME280;29610;49.022;12.114;2023-04-22T10:41:10;97213.56;;;24.35;85.52
18795;BME280;29610;49.022;12.114;2023-04-22T10:44:05;97206.03;;;25.01;79.03
18795;BME280;29610;49.022;12.114;2023-04-22T10:46:58;97206.59;;;25.12;82.65
18795;BME280;29610;49.022;12.114;2023-04-22T10:49:49;97197.88;;;25.69;72.44
18795;BME280;29610;49.022;12.114;2023-04-22T10:52:40;97199.97;;;25.81;68.75
18795;BME280;29610;49.022;12.114;2023-04-22T10:55:49;97197.47;;;26.03;71.85
18795;BME280;29610;49.022;12.114;2023-04-22T10:58:39;97203.47;;;26.65;64.19
18795;BME280;29610;49.022;12.114;2023-04-22T11:01:28;97207.22;;;26.59;62.00
18795;BME280;29610;49.022;12.114;2023-04-22T11:04:22;97198.31;;;26.64;58.72
18795;BME280;29610;49.022;12.114;2023-04-22T11:07:13;97196.22;;;25.87;67.08
18795;BME280;29610;49.022;12.114;2023-04-22T11:10:08;97189.84;;;26.23;57.63
18795;BME280;29610;49.022;12.114;2023-04-22T11:13:04;97188.16;;;26.41;65.08
18795;BME280;29610;49.022;12.114;2023-04-22T11:15:55;97183.63;;;26.92;56.53
18795;BME280;29610;49.022;12.114;2023-04-22T11:18:46;97189.84;;;26.23;64.26
18795;BME280;29610;49.022;12.114;2023-04-22T11:21:37;97185.97;;;27.63;69.36
18795;BME280;29610;49.022;12.114;2023-04-22T11:24:27;97172.78;;;28.26;55.48
18795;BME280;29610;49.022;12.114;2023-04-22T11:27:18;97170.09;;;28.23;56.24
18795;BME280;29610;49.022;12.114;2023-04-22T11:30:16;97166.38;;;29.28;47.24
18795;BME280;29610;49.022;12.114;2023-04-22T11:33:04;97170.00;;;28.73;49.23
18795;BME280;29610;49.022;12.114;2023-04-22T11:35:53;97169.06;;;27.42;54.40
18795;BME280;29610;49.022;12.114;2023-04-22T11:38:53;97164.69;;;28.41;52.96
18795;BME280;29610;49.022;12.114;2023-04-22T11:41:44;97161.69;;;28.35;57.84
18795;BME280;29610;49.022;12.114;2023-04-22T11:44:34;97152.63;;;28.78;51.98
18795;BME280;29610;49.022;12.114;2023-04-22T11:47:23;97152.91;;;29.36;49.14
18795;BME280;29610;49.022;12.114;2023-04-22T11:50:13;97145.19;;;29.70;47.17
18795;BME280;29610;49.022;12.114;2023-04-22T11:53:08;97148.38;;;29.60;47.78
18795;BME280;29610;49.022;12.114;2023-04-22T11:56:02;97136.53;;;29.56;48.61
18795;BME280;29610;49.022;12.114;2023-04-22T11:58:51;97145.56;;;29.29;47.31
18795;BME280;29610;49.022;12.114;2023-04-22T12:01:41;97141.72;;;29.36;45.52
18795;BME280;29610;49.022;12.114;2023-04-22T12:04:36;97145.44;;;28.55;50.53
18795;BME280;29610;49.022;12.114;2023-04-22T12:07:26;97132.72;;;29.41;48.99
18795;BME280;29610;49.022;12.114;2023-04-22T12:10:15;97141.34;;;29.86;42.71
18795;BME280;29610;49.022;12.114;2023-04-22T12:13:06;97133.72;;;29.86;44.49
18795;BME280;29610;49.022;12.114;2023-04-22T12:15:58;97140.00;;;29.99;45.37
18795;BME280;29610;49.022;12.114;2023-04-22T12:18:49;97136.28;;;30.21;43.52
18795;BME280;29610;49.022;12.114;2023-04-22T12:21:41;97138.88;;;29.97;43.59
18795;BME280;29610;49.022;12.114;2023-04-22T12:24:30;97141.03;;;30.24;47.40
18795;BME280;29610;49.022;12.114;2023-04-22T12:27:19;97133.75;;;30.44;46.12
18795;BME280;29610;49.022;12.114;2023-04-22T12:30:11;97136.09;;;31.00;41.17
18795;BME280;29610;49.022;12.114;2023-04-22T12:33:01;97127.88;;;30.12;44.84
18795;BME280;29610;49.022;12.114;2023-04-22T12:35:50;97134.75;;;30.20;43.20
18795;BME280;29610;49.022;12.114;2023-04-22T12:38:40;97121.75;;;29.55;44.86
18795;BME280;29610;49.022;12.114;2023-04-22T12:41:33;97130.69;;;29.41;47.60
18795;BME280;29610;49.022;12.114;2023-04-22T12:44:22;97124.84;;;29.27;43.60
18795;BME280;29610;49.022;12.114;2023-04-22T12:47:13;97122.81;;;29.18;44.94
18795;BME280;29610;49.022;12.114;2023-04-22T12:50:06;97131.03;;;28.79;46.66
18795;BME280;29610;49.022;12.114;2023-04-22T12:52:55;97126.69;;;28.99;47.29
18795;BME280;29610;49.022;12.114;2023-04-22T12:55:44;97112.84;;;28.40;45.66
18795;BME280;29610;49.022;12.114;2023-04-22T12:58:33;97116.53;;;28.37;46.23
18795;BME280;29610;49.022;12.114;2023-04-22T13:01:22;97113.59;;;28.06;46.00
18795;BME280;29610;49.022;12.114;2023-04-22T13:04:12;97109.91;;;27.84;43.66
18795;BME280;29610;49.022;12.114;2023-04-22T13:07:02;97115.84;;;27.61;45.80
18795;BME280;29610;49.022;12.114;2023-04-22T13:09:54;97096.06;;;27.43;46.68
18795;BME280;29610;49.022;12.114;2023-04-22T13:12:44;97092.94;;;27.66;45.28
18795;BME280;29610;49.022;12.114;2023-04-22T13:15:33;97090.69;;;28.11;44.08
18795;BME280;29610;49.022;12.114;2023-04-22T13:18:23;97086.91;;;28.39;43.70
18795;BME280;29610;49.022;12.114;2023-04-22T13:21:13;97086.75;;;28.55;44.51
18795;BME280;29610;49.022;12.114;2023-04-22T13:24:03;97074.16;;;28.38;44.42
18795;BME280;29610;49.022;12.114;2023-04-22T13:26:52;97081.75;;;28.38;44.56
18795;BME280;29610;49.022;12.114;2023-04-22T13:29:42;97073.56;;;28.56;44.49
18795;BME280;29610;49.022;12.114;2023-04-22T13:32:31;97070.97;;;28.83;43.54
18795;BME280;29610;49.022;12.114;2023-04-22T13:35:21;97068.41;;;28.76;42.09
18795;BME280;29610;49.022;12.114;2023-04-22T13:38:12;97065.22;;;28.65;45.05
18795;BME280;29610;49.022;12.114;2023-04-22T13:41:01;97058.41;;;28.66;44.87
18795;BME280;29610;49.022;12.114;2023-04-22T13:43:51;97057.91;;;28.46;43.03
18795;BME280;29610;49.022;12.114;2023-04-22T13:46:42;97053.31;;;28.52;41.24
18795;BME280;29610;49.022;12.114;2023-04-22T13:49:31;97040.41;;;28.67;43.88
18795;BME280;29610;49.022;12.114;2023-04-22T13:52:20;97038.06;;;28.31;41.91
18795;BME280;29610;49.022;12.114;2023-04-22T13:55:10;97030.50;;;28.75;41.31
18795;BME280;29610;49.022;12.114;2023-04-22T13:57:59;97032.47;;;28.96;40.91
18795;BME280;29610;49.022;12.114;2023-04-22T14:00:48;97022.97;;;28.85;41.06
18795;BME280;29610;49.022;12.114;2023-04-22T14:03:38;97019.00;;;28.73;39.44
18795;BME280;29610;49.022;12.114;2023-04-22T14:06:27;97023.47;;;28.27;42.02
18795;BME280;29610;49.022;12.114;2023-04-22T14:09:16;97018.78;;;28.67;41.81
18795;BME280;29610;49.022;12.114;2023-04-22T14:12:07;97013.31;;;29.07;43.63
18795;BME280;29610;49.022;12.114;2023-04-22T14:14:57;97009.34;;;28.96;42.00
18795;BME280;29610;49.022;12.114;2023-04-22T14:17:46;97005.41;;;28.84;41.44
18795;BME280;29610;49.022;12.114;2023-04-22T14:20:36;97003.78;;;28.74;41.28
18795;BME280;29610;49.022;12.114;2023-04-22T14:23:25;97007.56;;;28.37;43.12
18795;BME280;29610;49.022;12.114;2023-04-22T14:26:14;97008.94;;;28.54;42.48
18795;BME280;29610;49.022;12.114;2023-04-22T14:29:05;96996.59;;;28.64;41.68
18795;BME280;29610;49.022;12.114;2023-04-22T14:31:55;97000.50;;;28.32;39.40
18795;BME280;29610;49.022;12.114;2023-04-22T14:34:44;97002.03;;;27.78;40.46
18795;BME280;29610;49.022;12.114;2023-04-22T14:37:33;96996.91;;;28.10;42.09
18795;BME280;29610;49.022;12.114;2023-04-22T14:40:22;96997.72;;;28.11;42.05
18795;BME280;29610;49.022;12.114;2023-04-22T14:43:16;96988.41;;;27.92;43.72
18795;BME280;29610;49.022;12.114;2023-04-22T14:46:07;96986.78;;;27.57;44.29
18795;BME280;29610;49.022;12.114;2023-04-22T14:48:56;96986.50;;;27.30;45.33
18795;BME280;29610;49.022;12.114;2023-04-22T14:51:46;96986.16;;;27.03;46.61